Time;durP1;ratioP1;P1;durP2;ratioP2;P2;SDS_P1;SDS_P2;PMS_P1;PMS_P2;Temp;Humidity;BMP_temperature;BMP_pressure;BME280_temperature;BME280_humidity;BME280_pressure;Samples;Min_cycle;Max_cycle;Signal;HPM_P1;HPM_P2
2021/07/12 00:00:20;;;;;;;8.43;4.90;;;691.50;1254.40;;;;;;5095447;28;20024;-61
2021/07/12 00:02:47;;;;;;;11.40;5.30;;;691.50;1254.40;;;;;;5095218;28;20047;-61
2021/07/12 00:05:14;;;;;;;12.27;5.57;;;691.40;1254.40;;;;;;5094879;28;20028;-61
2021/07/12 00:07:41;;;;;;;13.05;5.63;;;691.50;1254.40;;;;;;5095242;28;20020;-61
2021/07/12 00:10:09;;;;;;;10.48;5.28;;;691.40;1280.00;;;;;;5094350;28;20031;-61
2021/07/12 00:12:35;;;;;;;14.18;5.45;;;691.40;1280.00;;;;;;5094660;28;20031;-52
2021/07/12 00:15:03;;;;;;;8.63;4.75;;;691.30;1280.00;;;;;;5094967;28;20098;-60
2021/07/12 00:17:29;;;;;;;8.07;5.07;;;691.20;1305.60;;;;;;5094327;28;20024;-56
2021/07/12 00:19:55;;;;;;;11.25;4.75;;;691.20;1280.00;;;;;;5094506;28;20023;-61
2021/07/12 00:22:21;;;;;;;9.73;5.10;;;666.50;1305.60;;;;;;5094309;28;20035;-54
2021/07/12 00:24:47;;;;;;;11.32;5.13;;;666.50;1305.60;;;;;;5094498;28;20040;-52
2021/07/12 00:27:13;;;;;;;12.52;5.45;;;666.50;1305.60;;;;;;5094403;28;20064;-61
2021/07/12 00:29:39;;;;;;;7.65;5.43;;;666.50;1305.60;;;;;;5094003;28;20102;-53
2021/07/12 00:32:05;;;;;;;8.82;5.32;;;666.50;1280.00;;;;;;5094367;28;20119;-52
2021/07/12 00:34:32;;;;;;;13.82;5.28;;;691.20;1280.00;;;;;;5094292;28;20102;-52
2021/07/12 00:36:57;;;;;;;15.32;5.15;;;666.50;1305.60;;;;;;5094574;28;20036;-60
2021/07/12 00:39:23;;;;;;;13.25;5.80;;;691.20;1305.60;;;;;;5094288;28;20016;-61
2021/07/12 00:41:52;;;;;;;14.75;6.13;;;691.20;1305.60;;;;;;5094545;28;20032;-61
2021/07/12 00:44:18;;;;;;;15.25;5.68;;;691.20;1305.60;;;;;;5094450;28;20496;-53
2021/07/12 00:46:44;;;;;;;9.80;5.18;;;691.20;1305.60;;;;;;5094888;28;20027;-60
2021/07/12 00:49:10;;;;;;;7.47;5.45;;;691.20;1280.00;;;;;;5094511;28;20422;-61
2021/07/12 00:51:36;;;;;;;9.65;5.75;;;666.50;1305.60;;;;;;5094036;28;20410;-61
2021/07/12 00:54:03;;;;;;;8.45;5.45;;;691.20;1305.60;;;;;;5094504;28;20436;-61
2021/07/12 00:56:29;;;;;;;12.98;5.38;;;691.20;1305.60;;;;;;5094317;28;20104;-60
2021/07/12 00:58:55;;;;;;;9.40;5.78;;;666.50;1305.60;;;;;;5093965;28;20043;-61
2021/07/12 01:01:21;;;;;;;16.80;5.40;;;666.50;1305.60;;;;;;5094185;28;20035;-61
2021/07/12 01:03:48;;;;;;;10.75;5.47;;;666.50;1305.60;;;;;;5094870;28;20036;-61
2021/07/12 01:06:13;;;;;;;11.95;6.03;;;666.50;1305.60;;;;;;5094139;28;20384;-61
2021/07/12 01:08:40;;;;;;;11.98;5.47;;;666.50;1305.60;;;;;;5093817;28;20028;-61
2021/07/12 01:11:31;;;;;;;10.23;5.40;;;666.50;1305.60;;;;;;5093749;28;20498;-61
2021/07/12 01:14:15;;;;;;;12.07;5.57;;;666.50;1331.20;;;;;;5093734;28;20397;-61
2021/07/12 01:16:50;;;;;;;11.93;6.75;;;666.40;1305.60;;;;;;5094004;28;20024;-61
2021/07/12 01:19:54;;;;;;;11.25;6.32;;;666.40;1331.20;;;;;;5093695;28;20027;-52
2021/07/12 01:22:42;;;;;;;9.50;6.70;;;666.30;1331.20;;;;;;5093696;28;20020;-60
2021/07/12 01:25:47;;;;;;;16.48;8.48;;;666.20;1331.20;;;;;;5093660;28;20040;-59
2021/07/12 01:28:49;;;;;;;20.00;8.40;;;666.10;1331.20;;;;;;5052110;28;20433;-60
2021/07/12 01:31:39;;;;;;;19.37;6.47;;;665.90;1356.80;;;;;;5093891;28;20373;-61
2021/07/12 01:34:23;;;;;;;11.30;6.20;;;665.90;1382.40;;;;;;5093504;28;20031;-61
2021/07/12 01:37:07;;;;;;;12.35;5.95;;;666.00;1382.40;;;;;;5093509;28;20035;-60
2021/07/12 01:39:58;;;;;;;15.52;6.88;;;665.70;1408.00;;;;;;5094959;28;20052;-61
2021/07/12 01:42:50;;;;;;;9.63;5.53;;;665.70;1382.40;;;;;;5094409;28;20527;-61
2021/07/12 01:45:17;;;;;;;9.60;5.30;;;665.80;1408.00;;;;;;5097171;28;20044;-61
2021/07/12 01:48:22;;;;;;;11.55;6.05;;;665.70;1382.40;;;;;;5097574;28;20032;-59
2021/07/12 01:50:54;;;;;;;12.30;6.88;;;665.80;1408.00;;;;;;5015658;28;20474;-60
2021/07/12 01:53:34;;;;;;;12.80;7.55;;;665.70;1433.60;;;;;;5015588;28;20066;-60
2021/07/12 01:56:17;;;;;;;14.10;7.82;;;665.70;1459.20;;;;;;5015433;28;20022;-61
2021/07/12 01:58:54;;;;;;;12.48;7.53;;;665.70;1433.60;;;;;;5015426;28;20034;-58
2021/07/12 02:01:23;;;;;;;12.07;7.65;;;665.70;1433.60;;;;;;5015020;28;20034;-58
2021/07/12 02:03:49;;;;;;;9.57;7.50;;;665.70;1459.20;;;;;;5014785;28;20503;-53
2021/07/12 02:06:20;;;;;;;15.18;7.75;;;665.70;1459.20;;;;;;5014654;28;20113;-61
2021/07/12 02:08:48;;;;;;;11.13;8.02;;;665.70;1459.20;;;;;;5012434;28;20426;-54
2021/07/12 02:11:16;;;;;;;10.88;7.55;;;665.60;1484.80;;;;;;5014513;28;20037;-61
2021/07/12 02:13:44;;;;;;;11.30;7.55;;;665.70;1459.20;;;;;;5014495;28;20410;-57
2021/07/12 02:16:11;;;;;;;12.25;7.47;;;665.70;1459.20;;;;;;5014534;28;20610;-52
2021/07/12 02:18:38;;;;;;;12.40;7.53;;;665.70;1459.20;;;;;;5014466;28;20172;-52
2021/07/12 02:21:04;;;;;;;11.68;7.78;;;665.70;1484.80;;;;;;5011914;28;20537;-52
2021/07/12 02:23:31;;;;;;;13.60;8.02;;;665.60;1484.80;;;;;;5014528;28;20080;-52
2021/07/12 02:25:59;;;;;;;11.70;7.43;;;665.70;1459.20;;;;;;5096094;28;21093;-52
2021/07/12 02:28:26;;;;;;;17.58;8.20;;;665.70;1459.20;;;;;;5094757;28;20413;-52
2021/07/12 02:30:53;;;;;;;11.23;8.23;;;665.70;1484.80;;;;;;5096952;28;20095;-61
2021/07/12 02:33:21;;;;;;;17.05;9.20;;;665.70;1459.20;;;;;;5096242;28;20016;-53
2021/07/12 02:35:48;;;;;;;11.77;8.13;;;665.60;1536.00;;;;;;5096140;28;20438;-61
2021/07/12 02:38:15;;;;;;;16.80;7.63;;;640.90;1459.20;;;;;;5096270;28;20020;-52
2021/07/12 02:40:44;;;;;;;12.68;8.45;;;640.90;1484.80;;;;;;5096534;28;20028;-61
2021/07/12 02:43:12;;;;;;;16.98;8.50;;;665.60;1484.80;;;;;;5096442;28;20028;-60
2021/07/12 02:45:39;;;;;;;13.90;8.30;;;640.90;1484.80;;;;;;5096470;28;20038;-57
2021/07/12 02:48:06;;;;;;;12.13;8.18;;;640.90;1484.80;;;;;;5096687;28;20478;-61
2021/07/12 02:50:32;;;;;;;10.88;7.78;;;640.90;1510.40;;;;;;5096105;28;20115;-61
2021/07/12 02:53:10;;;;;;;11.70;8.02;;;640.80;1510.40;;;;;;5095544;28;20071;-60
2021/07/12 02:55:36;;;;;;;10.68;7.50;;;640.80;1510.40;;;;;;5093627;28;20024;-61
2021/07/12 02:58:02;;;;;;;12.02;7.97;;;640.70;1510.40;;;;;;5095795;28;20119;-61
2021/07/12 03:00:28;;;;;;;11.40;7.85;;;640.70;1536.00;;;;;;5095888;28;20020;-60
2021/07/12 03:02:54;;;;;;;11.32;8.02;;;640.70;1536.00;;;;;;5095522;28;20027;-60
2021/07/12 03:05:20;;;;;;;13.40;8.18;;;640.70;1587.20;;;;;;5095550;28;20028;-53
2021/07/12 03:07:55;;;;;;;12.93;8.27;;;640.70;1536.00;;;;;;5095516;28;20098;-54
2021/07/12 03:10:26;;;;;;;11.25;7.55;;;640.70;1536.00;;;;;;5094076;28;20036;-60
2021/07/12 03:12:55;;;;;;;13.57;8.23;;;640.70;1536.00;;;;;;5095798;28;20027;-56
2021/07/12 03:15:31;;;;;;;12.63;8.20;;;640.70;1561.60;;;;;;5095462;28;20099;-60
2021/07/12 03:17:59;;;;;;;12.52;7.80;;;640.60;1561.60;;;;;;5093178;28;20114;-60
2021/07/12 03:20:28;;;;;;;11.70;8.05;;;640.60;1587.20;;;;;;5095433;28;20034;-61
2021/07/12 03:22:56;;;;;;;14.55;8.23;;;640.60;1561.60;;;;;;5095194;28;20083;-60
2021/07/12 03:25:38;;;;;;;17.52;8.68;;;640.60;1561.60;;;;;;5095563;28;20032;-60
2021/07/12 03:28:05;;;;;;;13.15;8.02;;;640.60;1561.60;;;;;;5087520;28;20024;-61
2021/07/12 03:30:34;;;;;;;13.38;9.10;;;640.60;1561.60;;;;;;5095384;28;20024;-60
2021/07/12 03:33:01;;;;;;;17.80;7.95;;;640.70;1587.20;;;;;;5095515;28;20044;-57
2021/07/12 03:35:35;;;;;;;12.90;8.25;;;640.70;1587.20;;;;;;5095340;28;20036;-53
2021/07/12 03:38:02;;;;;;;12.27;8.45;;;640.70;1561.60;;;;;;5093830;28;20020;-61
2021/07/12 03:40:29;;;;;;;15.73;8.77;;;640.60;1561.60;;;;;;5095493;28;20122;-59
2021/07/12 03:42:55;;;;;;;10.48;7.82;;;640.60;1561.60;;;;;;5094770;28;20026;-55
2021/07/12 03:45:21;;;;;;;9.63;8.10;;;640.60;1587.20;;;;;;5095237;28;20021;-54
2021/07/12 03:47:50;;;;;;;11.57;8.85;;;640.60;1561.60;;;;;;5094726;28;20538;-52
2021/07/12 03:50:17;;;;;;;12.95;8.02;;;640.50;1561.60;;;;;;5092645;28;20418;-61
2021/07/12 03:52:53;;;;;;;11.57;8.32;;;640.50;1561.60;;;;;;5094994;28;20020;-54
2021/07/12 03:55:21;;;;;;;13.90;8.40;;;640.50;1612.80;;;;;;5093637;28;20059;-61
2021/07/12 03:57:48;;;;;;;11.55;8.13;;;640.40;1587.20;;;;;;5095111;28;20035;-61
2021/07/12 04:00:16;;;;;;;13.85;8.13;;;640.50;1561.60;;;;;;5095231;28;20039;-61
2021/07/12 04:02:44;;;;;;;16.33;8.90;;;640.50;1561.60;;;;;;5095227;28;20115;-61
2021/07/12 04:05:11;;;;;;;12.82;8.13;;;640.50;1561.60;;;;;;5095413;28;20032;-61
2021/07/12 04:07:38;;;;;;;13.82;8.20;;;640.50;1536.00;;;;;;5095057;28;20016;-61
2021/07/12 04:10:09;;;;;;;16.13;8.48;;;640.50;1536.00;;;;;;5095276;28;20029;-61
2021/07/12 04:12:36;;;;;;;11.50;7.50;;;640.50;1536.00;;;;;;5095616;28;20058;-61
2021/07/12 04:15:03;;;;;;;11.35;8.63;;;640.60;1536.00;;;;;;5095118;28;20024;-61
2021/07/12 04:17:29;;;;;;;11.10;7.65;;;640.60;1536.00;;;;;;5095637;28;20050;-61
2021/07/12 04:19:56;;;;;;;10.23;7.78;;;640.60;1510.40;;;;;;5095278;28;20400;-61
2021/07/12 04:22:23;;;;;;;10.40;8.05;;;640.60;1510.40;;;;;;5094411;28;20024;-56
2021/07/12 04:24:50;;;;;;;18.73;8.00;;;640.60;1510.40;;;;;;5095267;28;20085;-61
2021/07/12 04:27:15;;;;;;;11.00;7.95;;;640.60;1510.40;;;;;;5094525;28;20016;-52
2021/07/12 04:29:41;;;;;;;17.45;8.00;;;640.60;1536.00;;;;;;5094402;28;20089;-60
2021/07/12 04:32:08;;;;;;;17.33;8.90;;;640.60;1536.00;;;;;;5094990;28;20167;-61
2021/07/12 04:34:34;;;;;;;14.95;8.52;;;640.60;1536.00;;;;;;5094621;28;20050;-61
2021/07/12 04:36:59;;;;;;;9.07;8.18;;;640.60;1536.00;;;;;;5094854;28;20136;-52
2021/07/12 04:39:25;;;;;;;11.13;8.32;;;640.60;1536.00;;;;;;5094600;28;20610;-61
2021/07/12 04:41:52;;;;;;;10.48;7.55;;;640.60;1536.00;;;;;;5094992;28;20020;-61
2021/07/12 04:44:18;;;;;;;15.82;9.02;;;640.60;1536.00;;;;;;5094677;28;20093;-59
2021/07/12 04:46:43;;;;;;;11.07;8.45;;;640.60;1536.00;;;;;;5094343;28;20016;-60
2021/07/12 04:49:11;;;;;;;10.05;7.78;;;640.60;1536.00;;;;;;5094461;28;20024;-61
2021/07/12 04:51:38;;;;;;;12.35;8.32;;;640.60;1561.60;;;;;;5094570;28;20020;-61
2021/07/12 04:54:04;;;;;;;13.10;7.93;;;640.60;1561.60;;;;;;5093992;28;20440;-59
2021/07/12 04:56:30;;;;;;;9.73;7.63;;;640.60;1536.00;;;;;;5094222;28;20028;-61
2021/07/12 04:58:56;;;;;;;8.15;7.32;;;640.60;1536.00;;;;;;5094459;28;20095;-61
2021/07/12 05:01:24;;;;;;;9.13;7.28;;;640.60;1561.60;;;;;;5093927;28;20472;-61
2021/07/12 05:03:50;;;;;;;11.10;8.02;;;640.50;1587.20;;;;;;5093944;28;20032;-60
2021/07/12 05:06:16;;;;;;;12.65;7.90;;;640.60;1561.60;;;;;;5094050;28;20035;-56
2021/07/12 05:08:41;;;;;;;15.55;7.40;;;640.60;1561.60;;;;;;5094312;28;20028;-60
2021/07/12 05:11:08;;;;;;;11.23;7.60;;;640.60;1587.20;;;;;;5094232;28;20027;-61
2021/07/12 05:13:35;;;;;;;15.25;8.75;;;640.60;1587.20;;;;;;5093760;28;20020;-61
2021/07/12 05:16:03;;;;;;;14.18;8.48;;;640.60;1561.60;;;;;;5094024;28;20059;-61
2021/07/12 05:18:29;;;;;;;12.32;9.02;;;640.60;1561.60;;;;;;5094720;28;20602;-52
2021/07/12 05:20:56;;;;;;;10.38;8.38;;;640.60;1561.60;;;;;;5093869;28;20073;-61
2021/07/12 05:23:22;;;;;;;16.00;8.30;;;640.60;1587.20;;;;;;5093707;28;20092;-61
2021/07/12 05:25:49;;;;;;;11.65;8.70;;;640.60;1561.60;;;;;;5093970;28;20044;-61
2021/07/12 05:28:15;;;;;;;11.75;9.65;;;640.60;1561.60;;;;;;5093844;28;20431;-61
2021/07/12 05:30:41;;;;;;;12.50;8.98;;;640.60;1561.60;;;;;;5093777;28;20055;-60
2021/07/12 05:33:07;;;;;;;8.75;7.82;;;640.70;1587.20;;;;;;5094033;28;20032;-61
2021/07/12 05:35:33;;;;;;;14.32;8.60;;;640.70;1561.60;;;;;;5093152;28;20020;-61
2021/07/12 05:37:59;;;;;;;9.90;8.40;;;640.70;1561.60;;;;;;5093645;28;20028;-61
2021/07/12 05:40:25;;;;;;;11.82;8.90;;;640.70;1561.60;;;;;;5093609;28;20112;-61
2021/07/12 05:42:50;;;;;;;19.48;8.88;;;640.70;1561.60;;;;;;5093830;28;20028;-61
2021/07/12 05:45:17;;;;;;;13.70;9.13;;;640.70;1561.60;;;;;;5093785;28;20545;-61
2021/07/12 05:47:42;;;;;;;13.77;8.88;;;640.80;1536.00;;;;;;5093763;28;20115;-61
2021/07/12 05:50:10;;;;;;;9.30;8.10;;;640.70;1561.60;;;;;;5093781;28;20146;-60
2021/07/12 05:52:37;;;;;;;12.65;8.55;;;640.80;1536.00;;;;;;5093634;28;20032;-61
2021/07/12 05:55:04;;;;;;;9.60;8.20;;;640.80;1536.00;;;;;;5093648;28;20027;-61
2021/07/12 05:57:30;;;;;;;11.20;8.55;;;640.90;1561.60;;;;;;5093574;28;20020;-61
2021/07/12 05:59:56;;;;;;;11.35;8.13;;;640.90;1561.60;;;;;;5093475;28;20031;-61
2021/07/12 06:02:22;;;;;;;11.70;9.27;;;665.60;1561.60;;;;;;5094225;28;20031;-61
2021/07/12 06:04:48;;;;;;;9.45;8.45;;;665.70;1536.00;;;;;;5093133;28;20044;-58
2021/07/12 06:07:14;;;;;;;12.43;7.47;;;665.70;1561.60;;;;;;5093485;28;20026;-61
2021/07/12 06:09:40;;;;;;;12.07;8.70;;;665.60;1561.60;;;;;;5093383;28;20365;-61
2021/07/12 06:12:06;;;;;;;92.03;81.00;;;665.70;1561.60;;;;;;5093556;28;20020;-61
2021/07/12 06:14:32;;;;;;;28.05;23.92;;;665.80;1536.00;;;;;;5093413;28;20063;-61
2021/07/12 06:16:58;;;;;;;10.32;9.18;;;666.00;1536.00;;;;;;5093136;28;20436;-60
2021/07/12 06:19:24;;;;;;;10.30;8.90;;;666.00;1536.00;;;;;;5093146;28;20028;-61
2021/07/12 06:21:50;;;;;;;12.98;8.73;;;666.10;1536.00;;;;;;5093348;28;20020;-61
2021/07/12 06:24:16;;;;;;;12.02;8.93;;;666.10;1536.00;;;;;;5092966;28;20510;-61
2021/07/12 06:26:42;;;;;;;17.48;10.90;;;666.20;1510.40;;;;;;5094716;28;20077;-61
2021/07/12 06:29:08;;;;;;;11.48;9.00;;;666.20;1536.00;;;;;;5097097;28;20032;-61
2021/07/12 06:31:34;;;;;;;13.57;9.20;;;666.30;1510.40;;;;;;5096851;28;20460;-61
2021/07/12 06:34:00;;;;;;;20.75;10.10;;;666.30;1510.40;;;;;;5097048;28;20020;-61
2021/07/12 06:36:26;;;;;;;10.57;8.60;;;666.40;1536.00;;;;;;5096959;28;20031;-61
2021/07/12 06:38:52;;;;;;;11.90;8.43;;;691.20;1536.00;;;;;;5096856;28;20016;-61
2021/07/12 06:41:18;;;;;;;10.15;8.45;;;691.20;1510.40;;;;;;5096827;28;20361;-60
2021/07/12 06:43:44;;;;;;;10.73;8.95;;;691.30;1510.40;;;;;;5096430;28;20081;-60
2021/07/12 06:46:10;;;;;;;8.45;7.60;;;691.40;1510.40;;;;;;5096746;28;20080;-61
2021/07/12 06:48:36;;;;;;;13.10;8.73;;;691.30;1536.00;;;;;;5096508;28;20095;-61
2021/07/12 06:51:01;;;;;;;10.82;7.55;;;691.40;1510.40;;;;;;5096363;28;20463;-60
2021/07/12 06:53:27;;;;;;;10.10;8.18;;;691.40;1510.40;;;;;;5096646;28;20027;-61
2021/07/12 06:55:53;;;;;;;17.50;8.10;;;691.40;1510.40;;;;;;5096261;28;20105;-61
2021/07/12 06:58:19;;;;;;;9.82;8.55;;;691.40;1510.40;;;;;;5096224;28;20111;-60
2021/07/12 07:00:45;;;;;;;10.95;8.50;;;691.50;1510.40;;;;;;5096115;28;20103;-60
2021/07/12 07:03:11;;;;;;;12.23;8.20;;;691.40;1510.40;;;;;;5096534;28;20032;-58
2021/07/12 07:05:37;;;;;;;13.80;7.97;;;691.60;1510.40;;;;;;5096115;28;20456;-61
2021/07/12 07:08:04;;;;;;;11.88;7.95;;;691.70;1510.40;;;;;;5096137;28;20020;-61
2021/07/12 07:10:30;;;;;;;14.05;8.50;;;691.70;1484.80;;;;;;5095983;28;20074;-60
2021/07/12 07:12:55;;;;;;;59.95;47.47;;;691.80;1459.20;;;;;;5096077;28;20045;-60
2021/07/12 07:15:21;;;;;;;43.60;37.13;;;691.80;1484.80;;;;;;5095927;28;20026;-60
2021/07/12 07:17:47;;;;;;;11.48;8.57;;;691.80;1484.80;;;;;;5096171;28;20018;-61
2021/07/12 07:20:14;;;;;;;12.73;8.60;;;691.80;1484.80;;;;;;5095819;28;20419;-61
2021/07/12 07:22:40;;;;;;;33.65;9.73;;;691.90;1459.20;;;;;;5095488;28;20052;-61
2021/07/12 07:25:06;;;;;;;13.80;8.55;;;691.90;1459.20;;;;;;5095969;28;20083;-61
2021/07/12 07:27:32;;;;;;;16.40;8.10;;;692.00;1459.20;;;;;;5095637;28;20426;-61
2021/07/12 07:29:59;;;;;;;9.73;7.75;;;692.10;1459.20;;;;;;5095926;28;20031;-60
2021/07/12 07:32:25;;;;;;;9.55;8.55;;;716.80;1484.80;;;;;;5095506;28;20052;-61
2021/07/12 07:34:51;;;;;;;11.63;8.40;;;716.80;1484.80;;;;;;5095473;28;20064;-61
2021/07/12 07:37:16;;;;;;;11.50;8.07;;;716.80;1484.80;;;;;;5095306;28;20107;-61
2021/07/12 07:39:42;;;;;;;12.88;8.02;;;716.90;1510.40;;;;;;5095409;28;20024;-60
2021/07/12 07:42:08;;;;;;;9.90;7.63;;;716.90;1484.80;;;;;;5094698;28;20028;-60
2021/07/12 07:44:34;;;;;;;10.30;8.25;;;716.90;1484.80;;;;;;5095087;28;20024;-61
2021/07/12 07:47:00;;;;;;;15.77;10.98;;;717.00;1484.80;;;;;;5094756;28;20034;-60
2021/07/12 07:49:27;;;;;;;12.43;8.07;;;717.00;1484.80;;;;;;5095170;28;20040;-61
2021/07/12 07:51:53;;;;;;;12.82;8.43;;;717.00;1484.80;;;;;;5094735;28;20020;-61
2021/07/12 07:54:19;;;;;;;11.32;7.40;;;717.00;1484.80;;;;;;5094936;28;20027;-53
2021/07/12 07:56:45;;;;;;;11.57;7.80;;;717.00;1510.40;;;;;;5094706;28;20376;-61
2021/07/12 07:59:11;;;;;;;11.73;7.53;;;717.00;1484.80;;;;;;5094979;28;20097;-61
2021/07/12 08:01:37;;;;;;;13.65;8.75;;;717.00;1484.80;;;;;;5095010;28;20036;-60
2021/07/12 08:04:03;;;;;;;10.80;7.60;;;716.90;1484.80;;;;;;5094852;28;20036;-53
2021/07/12 08:06:29;;;;;;;14.40;7.57;;;717.00;1484.80;;;;;;5094860;28;20074;-54
2021/07/12 08:08:55;;;;;;;12.25;7.63;;;716.90;1484.80;;;;;;5095048;28;20073;-53
2021/07/12 08:11:21;;;;;;;12.60;7.72;;;716.90;1484.80;;;;;;5094511;28;20035;-52
2021/07/12 08:13:47;;;;;;;8.70;7.55;;;716.90;1484.80;;;;;;5094586;28;20028;-61
2021/07/12 08:16:13;;;;;;;20.95;18.63;;;716.90;1510.40;;;;;;5095067;28;20024;-60
2021/07/12 08:18:39;;;;;;;22.48;15.90;;;716.90;1484.80;;;;;;5094634;28;20490;-60
2021/07/12 08:21:07;;;;;;;18.77;8.02;;;716.90;1484.80;;;;;;5094960;28;20028;-52
2021/07/12 08:23:34;;;;;;;9.15;7.13;;;717.00;1484.80;;;;;;5094312;28;20488;-60
2021/07/12 08:26:00;;;;;;;10.05;7.43;;;716.90;1459.20;;;;;;5094867;28;20036;-52
2021/07/12 08:28:25;;;;;;;8.93;6.60;;;716.90;1484.80;;;;;;5094572;28;20020;-61
2021/07/12 08:30:53;;;;;;;8.00;7.20;;;716.90;1484.80;;;;;;5094740;28;20107;-52
2021/07/12 08:33:20;;;;;;;9.52;7.25;;;716.90;1484.80;;;;;;5094679;28;20028;-53
2021/07/12 08:35:46;;;;;;;23.50;8.30;;;716.90;1484.80;;;;;;5094382;28;20031;-60
2021/07/12 08:38:12;;;;;;;11.07;7.60;;;717.00;1484.80;;;;;;5094211;28;20024;-61
2021/07/12 08:40:38;;;;;;;7.97;7.00;;;717.00;1484.80;;;;;;5094082;28;20089;-56
2021/07/12 08:43:04;;;;;;;12.95;7.38;;;717.00;1484.80;;;;;;5093430;28;20027;-60
2021/07/12 08:45:30;;;;;;;14.57;8.93;;;717.00;1484.80;;;;;;5093966;28;20530;-53
2021/07/12 08:47:56;;;;;;;29.88;27.13;;;717.10;1484.80;;;;;;5093498;28;20027;-60
2021/07/12 08:50:25;;;;;;;14.00;8.85;;;717.00;1510.40;;;;;;5092420;28;20064;-52
2021/07/12 08:52:53;;;;;;;11.10;8.10;;;717.00;1484.80;;;;;;5093314;28;20024;-60
2021/07/12 08:55:19;;;;;;;11.65;7.82;;;717.20;1484.80;;;;;;5093426;28;20032;-52
2021/07/12 08:58:00;;;;;;;13.45;6.57;;;717.30;1484.80;;;;;;5093579;28;20020;-52
2021/07/12 09:01:01;;;;;;;12.05;7.43;;;717.20;1484.80;;;;;;5091429;28;20096;-60
2021/07/12 09:03:35;;;;;;;13.35;6.25;;;717.30;1459.20;;;;;;5077003;28;20028;-60
2021/07/12 09:06:05;;;;;;;10.02;7.05;;;717.30;1459.20;;;;;;5093411;28;20069;-58
2021/07/12 09:09:04;;;;;;;15.45;6.97;;;717.30;1459.20;;;;;;5093324;28;20503;-61
2021/07/12 09:11:43;;;;;;;8.93;6.13;;;717.30;1484.80;;;;;;5091253;28;20035;-61
2021/07/12 09:14:09;;;;;;;8.05;6.28;;;717.40;1459.20;;;;;;5094555;28;20077;-52
2021/07/12 09:16:54;;;;;;;11.23;6.75;;;717.30;1459.20;;;;;;5093619;28;20032;-61
2021/07/12 09:19:32;;;;;;;14.52;6.55;;;717.40;1484.80;;;;;;5093955;28;20032;-59
2021/07/12 09:22:06;;;;;;;17.00;11.18;;;717.50;1484.80;;;;;;5093634;28;20585;-61
2021/07/12 09:24:34;;;;;;;14.13;8.20;;;717.50;1484.80;;;;;;5093171;28;20047;-60
2021/07/12 09:27:11;;;;;;;13.27;9.38;;;717.50;1459.20;;;;;;5093578;28;20024;-60
2021/07/12 09:29:49;;;;;;;13.27;6.72;;;717.70;1459.20;;;;;;5093606;28;20476;-60
2021/07/12 09:32:20;;;;;;;8.75;6.43;;;742.40;1484.80;;;;;;5093343;28;20024;-61
2021/07/12 09:34:47;;;;;;;8.45;6.00;;;742.40;1459.20;;;;;;5093817;28;20024;-61
2021/07/12 09:37:18;;;;;;;12.63;7.05;;;742.40;1484.80;;;;;;5093837;28;20380;-60
2021/07/12 09:39:46;;;;;;;13.02;6.30;;;742.50;1484.80;;;;;;5093517;28;20027;-60
2021/07/12 09:42:14;;;;;;;14.70;6.80;;;742.50;1484.80;;;;;;5093420;28;20016;-61
2021/07/12 09:44:43;;;;;;;9.85;5.95;;;742.50;1459.20;;;;;;5093363;28;20040;-61
2021/07/12 09:47:12;;;;;;;12.68;7.13;;;742.50;1459.20;;;;;;5093668;28;20063;-60
2021/07/12 09:49:38;;;;;;;11.18;6.45;;;742.50;1484.80;;;;;;5093370;28;20032;-61
2021/07/12 09:52:08;;;;;;;13.45;6.53;;;742.60;1484.80;;;;;;5093607;28;20073;-53
2021/07/12 09:54:36;;;;;;;11.52;7.75;;;742.60;1484.80;;;;;;5094188;28;20034;-61
2021/07/12 09:57:20;;;;;;;20.80;18.63;;;742.60;1484.80;;;;;;5093308;28;20099;-60
2021/07/12 10:00:08;;;;;;;15.25;10.93;;;742.70;1459.20;;;;;;5093632;28;20434;-60
2021/07/12 10:02:36;;;;;;;11.02;7.78;;;742.70;1459.20;;;;;;5097871;28;20027;-61
2021/07/12 10:05:13;;;;;;;9.38;5.97;;;742.80;1484.80;;;;;;5097518;28;20040;-60
2021/07/12 10:07:39;;;;;;;10.15;7.20;;;742.80;1484.80;;;;;;5097611;28;20024;-60
2021/07/12 10:10:13;;;;;;;22.65;6.13;;;742.80;1484.80;;;;;;5097204;28;20024;-52
2021/07/12 10:12:45;;;;;;;9.10;6.55;;;742.90;1459.20;;;;;;5097182;28;20081;-53
2021/07/12 10:15:15;;;;;;;10.90;6.22;;;742.90;1459.20;;;;;;5097410;28;20020;-58
2021/07/12 10:17:43;;;;;;;13.15;6.07;;;742.90;1459.20;;;;;;5097564;28;20059;-61
2021/07/12 10:20:11;;;;;;;14.77;6.07;;;742.90;1433.60;;;;;;5096919;28;20020;-61
2021/07/12 10:22:44;;;;;;;11.57;6.68;;;742.90;1433.60;;;;;;5097332;28;20024;-61
2021/07/12 10:25:12;;;;;;;;;;;742.90;1433.60;;;;;;5096063;28;20032;-61
2021/07/12 10:28:01;;;;;;;13.98;6.22;;;743.00;1433.60;;;;;;5097171;28;19961;-56
2021/07/12 10:30:37;;;;;;;10.63;6.78;;;743.00;1433.60;;;;;;5096898;28;20052;-61
2021/07/12 10:33:10;;;;;;;20.02;13.23;;;743.00;1433.60;;;;;;5096754;28;20024;-61
2021/07/12 10:35:41;;;;;;;10.05;7.25;;;743.00;1433.60;;;;;;5097099;28;20039;-61
2021/07/12 10:38:09;;;;;;;14.25;6.90;;;743.00;1433.60;;;;;;5096733;28;20072;-61
2021/07/12 10:40:58;;;;;;;14.43;6.70;;;743.00;1408.00;;;;;;5096258;28;20490;-61
2021/07/12 10:43:42;;;;;;;9.35;5.97;;;743.10;1433.60;;;;;;5094940;28;20024;-61
2021/07/12 10:46:09;;;;;;;9.57;5.93;;;743.10;1382.40;;;;;;5096560;28;20028;-60
2021/07/12 10:48:39;;;;;;;11.27;6.53;;;743.10;1408.00;;;;;;5096017;28;20487;-61
2021/07/12 10:51:25;;;;;;;9.45;6.18;;;743.10;1382.40;;;;;;5096198;28;20024;-53
2021/07/12 10:53:58;;;;;;;10.88;6.90;;;743.20;1433.60;;;;;;5095697;28;20024;-60
2021/07/12 10:56:42;;;;;;;10.75;6.03;;;743.30;1408.00;;;;;;5096142;28;20046;-60
2021/07/12 10:59:22;;;;;;;14.85;6.88;;;768.00;1408.00;;;;;;5095073;28;20058;-59
2021/07/12 11:01:48;;;;;;;7.13;6.28;;;768.00;1408.00;;;;;;5086057;28;20078;-61
2021/07/12 11:04:32;;;;;;;8.10;5.60;;;768.00;1408.00;;;;;;5096015;28;20040;-60
2021/07/12 11:06:59;;;;;;;19.83;14.75;;;768.00;1382.40;;;;;;5095915;28;20016;-52
2021/07/12 11:09:47;;;;;;;10.65;8.30;;;768.10;1408.00;;;;;;5096216;28;20028;-60
2021/07/12 11:12:26;;;;;;;14.00;6.43;;;768.20;1382.40;;;;;;5095601;28;20067;-51
2021/07/12 11:15:17;;;;;;;10.52;6.97;;;768.20;1433.60;;;;;;5095763;28;20031;-53
2021/07/12 11:18:03;;;;;;;11.65;6.78;;;768.20;1382.40;;;;;;5095580;28;20048;-53
2021/07/12 11:20:48;;;;;;;15.82;7.28;;;768.30;1382.40;;;;;;5095640;28;20027;-51
2021/07/12 11:23:42;;;;;;;12.00;6.55;;;768.20;1382.40;;;;;;5094528;28;20048;-54
2021/07/12 11:26:30;;;;;;;10.30;7.18;;;768.30;1382.40;;;;;;5092426;28;20027;-58
2021/07/12 11:29:12;;;;;;;39.35;7.45;;;768.30;1382.40;;;;;;5093287;28;20077;-51
2021/07/12 11:31:51;;;;;;;68.55;10.25;;;768.30;1408.00;;;;;;5093741;28;20024;-52
2021/07/12 11:34:35;;;;;;;67.80;9.98;;;768.30;1408.00;;;;;;5094455;28;20036;-52
2021/07/12 11:37:09;;;;;;;26.90;6.85;;;768.30;1408.00;;;;;;5093981;28;20129;-51
2021/07/12 11:39:41;;;;;;;9.73;6.28;;;768.50;1408.00;;;;;;5094161;28;20055;-60
2021/07/12 11:42:27;;;;;;;9.02;6.75;;;768.50;1382.40;;;;;;5092045;28;20069;-52
2021/07/12 11:44:58;;;;;;;16.63;6.55;;;768.50;1356.80;;;;;;5092698;28;20361;-60
2021/07/12 11:47:28;;;;;;;10.43;6.35;;;768.50;1382.40;;;;;;5091147;28;20020;-59
2021/07/12 11:49:57;;;;;;;7.43;5.70;;;768.60;1356.80;;;;;;5093897;28;20024;-60
2021/07/12 11:52:24;;;;;;;10.10;6.25;;;768.60;1356.80;;;;;;5094142;28;20016;-60
2021/07/12 11:55:05;;;;;;;8.48;5.93;;;768.70;1356.80;;;;;;5093710;28;20056;-59
2021/07/12 11:57:33;;;;;;;10.60;6.20;;;768.70;1356.80;;;;;;5092284;28;20027;-59
2021/07/12 11:59:59;;;;;;;9.02;5.97;;;768.70;1331.20;;;;;;5093863;28;20042;-53
2021/07/12 12:02:25;;;;;;;7.07;6.38;;;768.70;1331.20;;;;;;5093690;28;20451;-60
2021/07/12 12:04:57;;;;;;;9.40;6.45;;;768.70;1331.20;;;;;;5093486;28;20042;-58
2021/07/12 12:07:29;;;;;;;7.60;6.20;;;768.70;1331.20;;;;;;5093818;28;20012;-59
2021/07/12 12:10:09;;;;;;;24.55;7.00;;;768.70;1331.20;;;;;;5093646;28;20468;-59
2021/07/12 12:12:42;;;;;;;11.65;6.18;;;768.70;1356.80;;;;;;5092373;28;20031;-60
2021/07/12 12:15:09;;;;;;;17.90;7.25;;;768.70;1356.80;;;;;;5091219;28;20542;-52
2021/07/12 12:17:38;;;;;;;12.02;6.15;;;768.70;1356.80;;;;;;5093654;28;20035;-52
2021/07/12 12:20:09;;;;;;;10.85;5.88;;;768.70;1331.20;;;;;;5093363;28;20065;-52
2021/07/12 12:22:36;;;;;;;18.58;6.30;;;768.90;1331.20;;;;;;5093121;28;20025;-58